createdAt,value
2017-09-22T00:00:37.813Z,57.09
2017-09-22T00:01:38.157Z,57.28
2017-09-22T00:02:37.859Z,56.9
2017-09-22T00:03:37.873Z,57.38
2017-09-22T00:04:37.893Z,57.38
2017-09-22T00:05:38.235Z,57.38
2017-09-22T00:06:38.259Z,57.28
2017-09-22T00:07:38.281Z,57.48
2017-09-22T00:08:38.299Z,57.38
2017-09-22T00:09:38.321Z,56.99
2017-09-22T00:10:38.017Z,57.57
2017-09-22T00:11:38.359Z,57.57
2017-09-22T00:12:38.376Z,57.48
2017-09-22T00:13:38.393Z,57.28
2017-09-22T00:14:38.095Z,57.28
2017-09-22T00:15:38.446Z,57.67
2017-09-22T00:16:38.134Z,57.48
2017-09-22T00:17:38.475Z,57.19
2017-09-22T00:18:38.501Z,57.28
2017-09-22T00:19:38.192Z,57.38
2017-09-22T00:20:38.542Z,57.28
2017-09-22T00:21:38.557Z,57.38
2017-09-22T00:22:38.253Z,57.48
2017-09-22T00:23:38.600Z,57.48
2017-09-22T00:24:38.612Z,57.28
2017-09-22T00:25:38.314Z,57.28
2017-09-22T00:26:38.333Z,57.28
2017-09-22T00:27:38.673Z,57.48
2017-09-22T00:28:38.695Z,57.76
2017-09-22T00:29:38.710Z,57.57
2017-09-22T00:30:38.738Z,57.76
2017-09-22T00:31:38.431Z,57.28
2017-09-22T00:32:38.772Z,57.76
2017-09-22T00:33:38.472Z,57.76
2017-09-22T00:34:38.812Z,57.57
2017-09-22T00:35:38.514Z,57.48
2017-09-22T00:36:38.533Z,57.67
2017-09-22T00:37:38.878Z,57.76
2017-09-22T00:38:38.895Z,57.76
2017-09-22T00:39:38.591Z,57.48
2017-09-22T00:40:38.968Z,57.95
2017-09-22T00:41:38.953Z,58.05
2017-09-22T00:42:38.972Z,58.15
2017-09-22T00:43:38.667Z,57.95
2017-09-22T00:44:38.688Z,58.05
2017-09-22T00:45:38.711Z,58.05
2017-09-22T00:46:38.731Z,57.67
2017-09-22T00:47:39.076Z,57.95
2017-09-22T00:48:39.095Z,57.86
2017-09-22T00:49:39.110Z,57.95
2017-09-22T00:50:39.131Z,57.95
2017-09-22T00:51:38.833Z,58.34
2017-09-22T00:52:39.165Z,58.05
2017-09-22T00:53:38.867Z,58.05
2017-09-22T00:54:38.886Z,58.15
2017-09-22T00:55:39.227Z,58.34
2017-09-22T00:56:39.255Z,58.15
2017-09-22T00:57:39.266Z,58.24
2017-09-22T00:58:38.965Z,58.53
2017-09-22T00:59:39.307Z,58.05
2017-09-22T01:00:39.326Z,58.34
2017-09-22T01:01:39.351Z,58.24
2017-09-22T01:02:39.051Z,58.34
2017-09-22T01:03:39.390Z,58.34
2017-09-22T01:04:39.409Z,58.31
2017-09-22T01:05:39.108Z,58.34
2017-09-22T01:06:39.127Z,58.02
2017-09-22T01:07:39.142Z,58.02
2017-09-22T01:08:39.161Z,58.62
2017-09-22T01:09:39.181Z,58.24
2017-09-22T01:10:39.202Z,58.22
2017-09-22T01:11:39.219Z,58.72
2017-09-22T01:12:39.242Z,58.24
2017-09-22T01:13:39.579Z,58.81
2017-09-22T01:14:39.303Z,58.59
2017-09-22T01:15:39.318Z,57.92
2017-09-22T01:16:39.639Z,58.79
2017-09-22T01:17:39.338Z,58.69
2017-09-22T01:18:39.679Z,58.98
2017-09-22T01:19:39.380Z,58.98
2017-09-22T01:20:39.397Z,58.98
2017-09-22T01:21:39.741Z,58.98
2017-09-22T01:22:39.437Z,58.69
2017-09-22T01:23:39.457Z,58.79
2017-09-22T01:24:39.481Z,58.69
2017-09-22T01:25:39.499Z,58.98
2017-09-22T01:26:39.845Z,58.98
2017-09-22T01:27:39.865Z,58.88
2017-09-22T01:28:39.883Z,58.88
2017-09-22T01:29:39.580Z,58.79
2017-09-22T01:30:39.599Z,58.88
2017-09-22T01:31:39.618Z,58.88
2017-09-22T01:32:39.643Z,58.88
2017-09-22T01:33:39.660Z,58.69
2017-09-22T01:34:39.675Z,58.98
2017-09-22T01:35:39.701Z,58.79
2017-09-22T01:36:39.717Z,58.88
2017-09-22T01:37:40.072Z,58.69
2017-09-22T01:38:40.078Z,58.69
2017-09-22T01:39:40.157Z,58.88
2017-09-22T01:40:39.796Z,58.59
2017-09-22T01:41:40.137Z,59.08
2017-09-22T01:42:40.156Z,58.59
2017-09-22T01:43:39.854Z,59.17
2017-09-22T01:44:40.196Z,58.69
2017-09-22T01:45:39.892Z,58.59
2017-09-22T01:46:39.907Z,58.88
2017-09-22T01:47:40.248Z,59.45
2017-09-22T01:48:39.946Z,59.55
2017-09-22T01:49:40.289Z,59.27
2017-09-22T01:50:39.985Z,59.27
2017-09-22T01:51:40.006Z,59.36
2017-09-22T01:52:40.026Z,59.17
2017-09-22T01:53:40.041Z,59.36
2017-09-22T01:54:40.062Z,59.36
2017-09-22T01:55:40.404Z,59.36
2017-09-22T01:56:40.430Z,59.45
2017-09-22T01:57:40.507Z,59.27
2017-09-22T01:58:40.461Z,59.27
2017-09-22T01:59:40.480Z,59.17
2017-09-22T02:00:40.182Z,59.17
2017-09-22T02:01:40.522Z,59.08
2017-09-22T02:02:40.540Z,59.17
2017-09-22T02:03:40.239Z,59.08
2017-09-22T02:04:40.579Z,59.17
2017-09-22T02:05:40.603Z,59.08
2017-09-22T02:06:40.298Z,59.27
2017-09-22T02:07:40.641Z,59.27
2017-09-22T02:08:40.660Z,58.98
2017-09-22T02:09:40.679Z,59.08
2017-09-22T02:10:40.377Z,59.08
2017-09-22T02:11:40.394Z,58.98
2017-09-22T02:12:40.734Z,59.17
2017-09-22T02:13:40.434Z,58.98
2017-09-22T02:14:40.454Z,59.45
2017-09-22T02:15:40.472Z,59.75
2017-09-22T02:16:40.492Z,59.08
2017-09-22T02:17:40.512Z,59.08
2017-09-22T02:18:40.886Z,58.98
2017-09-22T02:19:40.549Z,59.17
2017-09-22T02:20:40.572Z,59.75
2017-09-22T02:21:40.913Z,59.75
2017-09-22T02:22:40.936Z,59.55
2017-09-22T02:23:40.630Z,59.08
2017-09-22T02:24:40.971Z,59.36
2017-09-22T02:25:40.665Z,59.55
2017-09-22T02:26:41.010Z,59.27
2017-09-22T02:27:40.706Z,59.27
2017-09-22T02:28:40.724Z,59.17
2017-09-22T02:29:41.066Z,59.17
2017-09-22T02:30:40.764Z,59.65
2017-09-22T02:31:41.138Z,59.45
2017-09-22T02:32:40.801Z,59.27
2017-09-22T02:33:41.143Z,59.45
2017-09-22T02:34:41.161Z,59.55
2017-09-22T02:35:41.267Z,59.45
2017-09-22T02:36:40.881Z,59.08
2017-09-22T02:37:41.221Z,59.65
2017-09-22T02:38:40.918Z,59.65
2017-09-22T02:39:41.259Z,59.65
2017-09-22T02:40:41.280Z,59.27
2017-09-22T02:41:41.307Z,59.36
2017-09-22T02:42:41.319Z,59.36
2017-09-22T02:43:41.336Z,59.45
2017-09-22T02:44:41.357Z,59.27
2017-09-22T02:45:41.377Z,59.45
2017-09-22T02:46:41.399Z,59.36
2017-09-22T02:47:41.093Z,59.36
2017-09-22T02:48:41.434Z,59.17
2017-09-22T02:49:41.222Z,59.27
2017-09-22T02:50:41.150Z,59.55
2017-09-22T02:51:41.490Z,59.55
2017-09-22T02:52:41.741Z,59.65
2017-09-22T02:53:41.208Z,60.13
2017-09-22T02:54:41.573Z,60.03
2017-09-22T02:55:41.246Z,60.03
2017-09-22T02:56:41.270Z,59.75
2017-09-22T02:57:41.287Z,59.84
2017-09-22T02:58:41.306Z,59.75
2017-09-22T02:59:41.652Z,59.65
2017-09-22T03:00:41.664Z,59.75
2017-09-22T03:01:41.683Z,59.75
2017-09-22T03:02:41.382Z,59.81
2017-09-22T03:03:41.725Z,59.75
2017-09-22T03:04:41.422Z,59.62
2017-09-22T03:05:41.763Z,59.55
2017-09-22T03:06:41.782Z,59.94
2017-09-22T03:07:41.825Z,60.29
2017-09-22T03:08:41.820Z,59.81
2017-09-22T03:09:41.839Z,60.29
2017-09-22T03:10:41.538Z,59.81
2017-09-22T03:11:41.879Z,60.1
2017-09-22T03:12:41.579Z,60.29
2017-09-22T03:13:41.918Z,60.1
2017-09-22T03:14:41.937Z,60.19
2017-09-22T03:15:41.635Z,60.19
2017-09-22T03:16:41.972Z,60.19
2017-09-22T03:17:42.022Z,60.1
2017-09-22T03:18:41.689Z,60.19
2017-09-22T03:19:42.103Z,60.19
2017-09-22T03:20:42.115Z,60.1
2017-09-22T03:21:42.121Z,60.29
2017-09-22T03:22:41.830Z,59.91
2017-09-22T03:23:42.149Z,60
2017-09-22T03:24:42.128Z,60.19
2017-09-22T03:25:41.829Z,60.19
2017-09-22T03:26:41.850Z,60.1
2017-09-22T03:27:41.864Z,60.48
2017-09-22T03:28:41.885Z,60.19
2017-09-22T03:29:42.224Z,60.38
2017-09-22T03:30:41.923Z,60.67
2017-09-22T03:31:42.265Z,60
2017-09-22T03:32:42.285Z,60
2017-09-22T03:33:42.300Z,60.48
2017-09-22T03:34:42.001Z,60.1
2017-09-22T03:35:42.019Z,60.19
2017-09-22T03:36:42.452Z,60.29
2017-09-22T03:37:42.459Z,60.19
2017-09-22T03:38:42.078Z,60.38
2017-09-22T03:39:42.096Z,60.29
2017-09-22T03:40:42.113Z,60.58
2017-09-22T03:41:42.457Z,60.48
2017-09-22T03:42:42.267Z,60.29
2017-09-22T03:43:42.577Z,60.19
2017-09-22T03:44:42.576Z,60.19
2017-09-22T03:45:42.602Z,60.48
2017-09-22T03:46:42.599Z,60.38
2017-09-22T03:47:42.298Z,60.29
2017-09-22T03:48:42.297Z,60.29
2017-09-22T03:49:42.306Z,60.48
2017-09-22T03:50:42.307Z,60.19
2017-09-22T03:51:42.325Z,60.19
2017-09-22T03:52:42.773Z,60.29
2017-09-22T03:53:42.689Z,60.1
2017-09-22T03:54:42.704Z,60.29
2017-09-22T03:55:42.723Z,60.38
2017-09-22T03:56:42.423Z,60.29
2017-09-22T03:57:42.439Z,60.29
2017-09-22T03:58:42.460Z,60.48
2017-09-22T03:59:42.801Z,60.29
2017-09-22T04:00:42.500Z,60.29
2017-09-22T04:01:42.516Z,60.1
2017-09-22T04:02:42.536Z,60.19
2017-09-22T04:03:42.882Z,60.38
2017-09-22T04:04:42.591Z,60.58
2017-09-22T04:05:42.922Z,60.38
2017-09-22T04:06:42.936Z,60.77
2017-09-22T04:07:42.653Z,60.77
2017-09-22T04:08:43.203Z,60.58
2017-09-22T04:09:42.988Z,60.77
2017-09-22T04:10:43.013Z,60.77
2017-09-22T04:11:42.708Z,60.77
2017-09-22T04:12:42.727Z,60.86
2017-09-22T04:13:42.746Z,60.96
2017-09-22T04:14:42.770Z,60.67
2017-09-22T04:15:42.787Z,60.19
2017-09-22T04:16:43.122Z,60.29
2017-09-22T04:17:43.143Z,60.67
2017-09-22T04:18:42.843Z,60.77
2017-09-22T04:19:42.865Z,60.86
2017-09-22T04:20:43.207Z,60.67
2017-09-22T04:21:42.900Z,60.96
2017-09-22T04:22:42.920Z,60.48
2017-09-22T04:23:43.260Z,60.48
2017-09-22T04:24:43.278Z,60.96
2017-09-22T04:25:43.297Z,61.15
2017-09-22T04:26:42.995Z,61.05
2017-09-22T04:27:43.013Z,61.05
2017-09-22T04:28:43.359Z,60.67
2017-09-22T04:29:43.377Z,60.86
2017-09-22T04:30:43.131Z,61.05
2017-09-22T04:31:43.096Z,61.05
2017-09-22T04:32:43.107Z,60.86
2017-09-22T04:33:43.488Z,60.77
2017-09-22T04:34:43.146Z,60.77
2017-09-22T04:35:43.490Z,60.96
2017-09-22T04:36:43.508Z,60.58
2017-09-22T04:37:43.527Z,60.48
2017-09-22T04:38:43.549Z,60.96
2017-09-22T04:39:43.242Z,60.67
2017-09-22T04:40:43.585Z,60.96
2017-09-22T04:41:43.603Z,61.05
2017-09-22T04:42:43.300Z,60.58
2017-09-22T04:43:43.322Z,60.77
2017-09-22T04:44:43.340Z,60.86
2017-09-22T04:45:43.678Z,61.44
2017-09-22T04:46:43.381Z,61.34
2017-09-22T04:47:43.399Z,61.05
2017-09-22T04:48:43.734Z,60.86
2017-09-22T04:49:43.755Z,61.25
2017-09-22T04:50:43.776Z,61.25
2017-09-22T04:51:43.798Z,61.25
2017-09-22T04:52:43.813Z,61.15
2017-09-22T04:53:43.510Z,61.25
2017-09-22T04:54:43.532Z,61.05
2017-09-22T04:55:43.549Z,61.15
2017-09-22T04:56:43.888Z,61.25
2017-09-22T04:57:43.588Z,61.34
2017-09-22T04:58:43.926Z,61.22
2017-09-22T04:59:43.946Z,61.25
2017-09-22T05:00:43.967Z,61.34
2017-09-22T05:01:43.983Z,61.15
2017-09-22T05:02:44.001Z,61.15
2017-09-22T05:03:44.023Z,60.77
2017-09-22T05:04:44.041Z,60.96
2017-09-22T05:05:44.070Z,60.96
2017-09-22T05:06:43.758Z,61.05
2017-09-22T05:07:44.097Z,61.05
2017-09-22T05:08:43.796Z,61.15
2017-09-22T05:09:44.136Z,61.41
2017-09-22T05:10:43.835Z,61.44
2017-09-22T05:11:44.176Z,61.63
2017-09-22T05:12:44.192Z,61.41
2017-09-22T05:13:43.891Z,61.44
2017-09-22T05:14:43.912Z,61.41
2017-09-22T05:15:43.930Z,60.96
2017-09-22T05:16:43.947Z,61.51
2017-09-22T05:17:43.973Z,61.63
2017-09-22T05:18:43.985Z,60.96
2017-09-22T05:19:44.153Z,61.54
2017-09-22T05:20:44.363Z,61.05
2017-09-22T05:21:44.046Z,61.6
2017-09-22T05:22:44.061Z,61.44
2017-09-22T05:23:44.404Z,61.44
2017-09-22T05:24:44.097Z,61.54
2017-09-22T05:25:44.119Z,61.6
2017-09-22T05:26:44.139Z,61.15
2017-09-22T05:27:44.481Z,61.22
2017-09-22T05:28:44.174Z,61.41
2017-09-22T05:29:44.514Z,61.41
2017-09-22T05:30:44.211Z,61.44
2017-09-22T05:31:44.277Z,61.41
2017-09-22T05:32:44.253Z,61.22
2017-09-22T05:33:44.268Z,60.93
2017-09-22T05:34:44.708Z,61.41
2017-09-22T05:35:44.307Z,61.22
2017-09-22T05:36:44.545Z,61.12
2017-09-22T05:37:44.345Z,61.31
2017-09-22T05:38:44.364Z,61.51
2017-09-22T05:39:44.392Z,61.41
2017-09-22T05:40:44.732Z,61.6
2017-09-22T05:41:44.422Z,61.51
2017-09-22T05:42:44.763Z,61.31
2017-09-22T05:43:44.464Z,61.51
2017-09-22T05:44:44.801Z,61.63
2017-09-22T05:45:44.817Z,61.6
2017-09-22T05:46:44.838Z,62.2
2017-09-22T05:47:44.858Z,62.11
2017-09-22T05:48:44.553Z,62.11
2017-09-22T05:49:44.942Z,61.72
2017-09-22T05:50:44.950Z,61.91
2017-09-22T05:51:44.932Z,61.98
2017-09-22T05:52:44.628Z,61.91
2017-09-22T05:53:44.648Z,62.2
2017-09-22T05:54:44.988Z,62.11
2017-09-22T05:55:45.013Z,62.01
2017-09-22T05:56:44.721Z,61.72
2017-09-22T05:57:44.726Z,61.91
2017-09-22T05:58:45.065Z,62.01
2017-09-22T05:59:45.081Z,61.91
2017-09-22T06:00:45.105Z,61.91
2017-09-22T06:01:44.799Z,61.91
2017-09-22T06:02:45.272Z,62.01
2017-09-22T06:03:44.838Z,62.01
2017-09-22T06:04:45.178Z,62.01
2017-09-22T06:05:45.207Z,61.72
2017-09-22T06:06:45.221Z,61.82
2017-09-22T06:07:44.915Z,62.3
2017-09-22T06:08:44.932Z,62.11
2017-09-22T06:09:44.950Z,62.2
2017-09-22T06:10:45.296Z,62.4
2017-09-22T06:11:45.318Z,61.63
2017-09-22T06:12:45.328Z,62.2
2017-09-22T06:13:45.030Z,61.91
2017-09-22T06:14:45.045Z,62.2
2017-09-22T06:15:45.389Z,62.3
2017-09-22T06:16:45.419Z,62.2
2017-09-22T06:17:45.101Z,62.2
2017-09-22T06:18:45.306Z,62.2
2017-09-22T06:19:45.463Z,62.4
2017-09-22T06:20:45.485Z,62.11
2017-09-22T06:21:45.500Z,62.4
2017-09-22T06:22:45.522Z,62.3
2017-09-22T06:23:45.541Z,62.2
2017-09-22T06:24:45.563Z,62.3
2017-09-22T06:25:45.256Z,62.3
2017-09-22T06:26:45.275Z,62.49
2017-09-22T06:27:45.294Z,62.01
2017-09-22T06:28:45.637Z,62.11
2017-09-22T06:29:45.654Z,62.68
2017-09-22T06:30:45.352Z,62.49
2017-09-22T06:31:45.738Z,63.16
2017-09-22T06:32:45.451Z,62.77
2017-09-22T06:33:45.494Z,62.11
2017-09-22T06:34:45.427Z,62.2
2017-09-22T06:35:45.444Z,62.59
2017-09-22T06:36:45.790Z,62.59
2017-09-22T06:37:45.802Z,63.16
2017-09-22T06:38:45.820Z,63.16
2017-09-22T06:39:45.845Z,62.68
2017-09-22T06:40:45.864Z,63.06
2017-09-22T06:41:45.561Z,63.06
2017-09-22T06:42:45.588Z,62.3
2017-09-22T06:43:45.598Z,62.2
2017-09-22T06:44:45.618Z,62.71
2017-09-22T06:45:45.985Z,62.3
2017-09-22T06:46:45.987Z,62.2
2017-09-22T06:47:45.674Z,62.23
2017-09-22T06:48:45.693Z,62.33
2017-09-22T06:49:45.714Z,62.04
2017-09-22T06:50:46.051Z,62.3
2017-09-22T06:51:46.074Z,62.23
2017-09-22T06:52:45.769Z,61.76
2017-09-22T06:53:45.786Z,62.04
2017-09-22T06:54:45.816Z,62.04
2017-09-22T06:55:46.149Z,62.14
2017-09-22T06:56:46.166Z,61.94
2017-09-22T06:57:46.215Z,61.76
2017-09-22T06:58:45.886Z,61.94
2017-09-22T06:59:46.224Z,62.01
2017-09-22T07:00:46.252Z,61.91
2017-09-22T07:01:46.265Z,61.94
2017-09-22T07:02:46.282Z,62.04
2017-09-22T07:03:45.980Z,62.04
2017-09-22T07:04:46.000Z,62.04
2017-09-22T07:05:46.020Z,61.94
2017-09-22T07:06:46.359Z,62.04
2017-09-22T07:07:46.063Z,62.04
2017-09-22T07:08:46.396Z,62.01
2017-09-22T07:09:46.094Z,62.04
2017-09-22T07:10:46.435Z,61.94
2017-09-22T07:11:46.454Z,62.23
2017-09-22T07:12:46.151Z,62.14
2017-09-22T07:13:46.492Z,61.85
2017-09-22T07:14:46.532Z,61.94
2017-09-22T07:15:46.214Z,61.47
2017-09-22T07:16:46.230Z,61.66
2017-09-22T07:17:46.568Z,61.66
2017-09-22T07:18:46.270Z,61.85
2017-09-22T07:19:46.290Z,61.76
2017-09-22T07:20:46.307Z,61.94
2017-09-22T07:21:46.409Z,61.66
2017-09-22T07:22:46.476Z,61.18
2017-09-22T07:23:46.800Z,61.28
2017-09-22T07:24:46.889Z,61.18
2017-09-22T07:25:46.788Z,61.66
2017-09-22T07:26:46.847Z,61.57
2017-09-22T07:27:46.525Z,61.18
2017-09-22T07:28:46.551Z,61.37
2017-09-22T07:29:46.578Z,60.99
2017-09-22T07:30:47.020Z,61.11
2017-09-22T07:31:46.522Z,61.21
2017-09-22T07:32:46.540Z,61.02
2017-09-22T07:33:46.881Z,60.93
2017-09-22T07:34:46.574Z,60.93
2017-09-22T07:35:46.924Z,60.93
2017-09-22T07:36:46.936Z,61.31
2017-09-22T07:37:46.954Z,61.4
2017-09-22T07:38:46.655Z,61.4
2017-09-22T07:39:46.994Z,61.5
2017-09-22T07:40:46.694Z,60.83
2017-09-22T07:41:47.033Z,60.83
2017-09-22T07:42:46.733Z,61.02
2017-09-22T07:43:47.069Z,60.93
2017-09-22T07:44:46.770Z,60.64
2017-09-22T07:45:47.111Z,60.73
2017-09-22T07:46:46.809Z,60.54
2017-09-22T07:47:46.829Z,60.83
2017-09-22T07:48:47.245Z,60.35
2017-09-22T07:49:46.869Z,60.96
2017-09-22T07:50:47.284Z,60.67
2017-09-22T07:51:46.990Z,60.86
2017-09-22T07:52:46.930Z,60.86
2017-09-22T07:53:47.271Z,60.57
2017-09-22T07:54:46.965Z,60.76
2017-09-22T07:55:46.989Z,60.76
2017-09-22T07:56:47.008Z,60.96
2017-09-22T07:57:47.364Z,60.47
2017-09-22T07:58:47.043Z,60.47
2017-09-22T07:59:47.387Z,60.86
2017-09-22T08:00:47.406Z,60.47
2017-09-22T08:01:47.423Z,60.28
2017-09-22T08:02:47.444Z,60.09
2017-09-22T08:03:47.145Z,60.57
2017-09-22T08:04:47.486Z,60.38
2017-09-22T08:05:47.505Z,60.19
2017-09-22T08:06:47.200Z,60.57
2017-09-22T08:07:47.556Z,60.28
2017-09-22T08:08:47.566Z,60.47
2017-09-22T08:09:47.590Z,60.47
2017-09-22T08:10:47.284Z,60.28
2017-09-22T08:11:47.385Z,60.57
2017-09-22T08:12:47.403Z,60.76
2017-09-22T08:13:47.437Z,60.5
2017-09-22T08:14:47.757Z,60.5
2017-09-22T08:15:47.791Z,60.5
2017-09-22T08:16:47.810Z,60.41
2017-09-22T08:17:47.807Z,60.31
2017-09-22T08:18:47.794Z,60.31
2017-09-22T08:19:47.790Z,60.31
2017-09-22T08:20:47.806Z,60.03
2017-09-22T08:21:47.821Z,60.31
2017-09-22T08:22:47.842Z,60.12
2017-09-22T08:23:47.884Z,60.12
2017-09-22T08:24:47.558Z,60.41
2017-09-22T08:25:47.900Z,60.31
2017-09-22T08:26:47.855Z,60.22
2017-09-22T08:27:47.941Z,60.41
2017-09-22T08:28:47.642Z,59.86
2017-09-22T08:29:47.987Z,59.74
2017-09-22T08:30:47.682Z,59.74
2017-09-22T08:31:47.699Z,59.96
2017-09-22T08:32:48.041Z,59.58
2017-09-22T08:33:48.062Z,59.38
2017-09-22T08:34:47.759Z,59.38
2017-09-22T08:35:47.781Z,59.38
2017-09-22T08:36:48.119Z,59.38
2017-09-22T08:37:48.142Z,59.67
2017-09-22T08:38:48.162Z,59.09
2017-09-22T08:39:48.194Z,59.19
2017-09-22T08:40:48.210Z,59.19
2017-09-22T08:41:47.899Z,59.38
2017-09-22T08:42:48.240Z,59.48
2017-09-22T08:43:47.940Z,59.29
2017-09-22T08:44:47.958Z,59.38
2017-09-22T08:45:48.302Z,59.38
2017-09-22T08:46:48.322Z,59
2017-09-22T08:47:48.344Z,59.09
2017-09-22T08:48:48.366Z,58.71
2017-09-22T08:49:48.382Z,58.91
2017-09-22T08:50:48.403Z,58.91
2017-09-22T08:51:48.425Z,59
2017-09-22T08:52:48.448Z,59
2017-09-22T08:53:48.465Z,59.12
2017-09-22T08:54:48.162Z,58.62
2017-09-22T08:55:48.507Z,58.81
2017-09-22T08:56:48.524Z,58.71
2017-09-22T08:57:48.549Z,58.74
2017-09-22T08:58:48.563Z,58.55
2017-09-22T08:59:48.610Z,57.88
2017-09-22T09:00:48.299Z,58.45
2017-09-22T09:01:48.633Z,58.07
2017-09-22T09:02:48.645Z,57.97
2017-09-22T09:03:48.345Z,57.68
2017-09-22T09:04:48.688Z,57.88
2017-09-22T09:05:48.386Z,57.78
2017-09-22T09:06:48.408Z,57.5
2017-09-22T09:07:48.785Z,57.81
2017-09-22T09:08:48.451Z,57.62
2017-09-22T09:09:48.787Z,57.14
2017-09-22T09:10:48.490Z,57.33
2017-09-22T09:11:48.508Z,57.23
2017-09-22T09:12:48.531Z,57.14
2017-09-22T09:13:48.873Z,57.33
2017-09-22T09:14:48.893Z,57.04
2017-09-22T09:15:48.912Z,57.43
2017-09-22T09:16:48.611Z,57.23
2017-09-22T09:17:48.632Z,57.23
2017-09-22T09:18:48.974Z,57.43
2017-09-22T09:19:48.997Z,56.95
2017-09-22T09:20:49.017Z,56.85
2017-09-22T09:21:48.715Z,57.43
2017-09-22T09:22:49.062Z,57.04
2017-09-22T09:23:49.077Z,56.85
2017-09-22T09:24:49.096Z,56.76
2017-09-22T09:25:48.797Z,57.43
2017-09-22T09:26:49.190Z,56.66
2017-09-22T09:27:49.163Z,56.18
2017-09-22T09:28:49.180Z,56.46
2017-09-22T09:29:49.200Z,55.99
2017-09-22T09:30:49.221Z,56.37
2017-09-22T09:31:49.248Z,55.79
2017-09-22T09:32:49.265Z,55.63
2017-09-22T09:33:48.966Z,55.79
2017-09-22T09:34:48.986Z,56.08
2017-09-22T09:35:49.004Z,56.21
2017-09-22T09:36:49.026Z,56.08
2017-09-22T09:37:49.371Z,56.21
2017-09-22T09:38:49.069Z,55.82
2017-09-22T09:39:49.089Z,55.73
2017-09-22T09:40:49.110Z,55.73
2017-09-22T09:41:49.452Z,55.44
2017-09-22T09:42:49.168Z,55.91
2017-09-22T09:43:49.499Z,55.63
2017-09-22T09:44:49.519Z,55.44
2017-09-22T09:45:49.213Z,55.24
2017-09-22T09:46:49.234Z,55.24
2017-09-22T09:47:49.258Z,55.15
2017-09-22T09:48:49.326Z,55.15
2017-09-22T09:49:49.382Z,55.05
2017-09-22T09:50:49.642Z,54.86
2017-09-22T09:51:49.662Z,54.96
2017-09-22T09:52:49.362Z,55.15
2017-09-22T09:53:49.379Z,54.67
2017-09-22T09:54:49.733Z,55.27
2017-09-22T09:55:49.746Z,55.05
2017-09-22T09:56:49.446Z,55.15
2017-09-22T09:57:49.794Z,54.99
2017-09-22T09:58:49.811Z,55.18
2017-09-22T09:59:49.829Z,55.18
2017-09-22T10:00:49.855Z,54.79
2017-09-22T10:01:49.873Z,54.6
2017-09-22T10:02:49.571Z,54.6
2017-09-22T10:03:49.915Z,54.79
2017-09-22T10:04:50.042Z,54.5
2017-09-22T10:05:49.958Z,54.89
2017-09-22T10:06:49.691Z,54.99
2017-09-22T10:07:49.676Z,54.5
2017-09-22T10:08:49.701Z,54.5
2017-09-22T10:09:50.041Z,53.92
2017-09-22T10:10:50.062Z,54.79
2017-09-22T10:11:50.086Z,54.12
2017-09-22T10:12:50.110Z,54.31
2017-09-22T10:13:49.806Z,54.41
2017-09-22T10:14:49.827Z,53.74
2017-09-22T10:15:49.849Z,53.47
2017-09-22T10:16:50.193Z,54.05
2017-09-22T10:17:49.892Z,53.76
2017-09-22T10:18:50.236Z,52.99
2017-09-22T10:19:49.933Z,52.89
2017-09-22T10:20:50.277Z,53.76
2017-09-22T10:21:49.975Z,53.47
2017-09-22T10:22:50.316Z,53.09
2017-09-22T10:23:50.022Z,53.28
2017-09-22T10:24:50.372Z,52.99
2017-09-22T10:25:50.407Z,52.99
2017-09-22T10:26:50.656Z,53.09
2017-09-22T10:27:50.107Z,52.89
2017-09-22T10:28:50.447Z,52.8
2017-09-22T10:29:50.469Z,52.54
2017-09-22T10:30:50.493Z,52.25
2017-09-22T10:31:50.516Z,52.25
2017-09-22T10:32:50.532Z,51.76
2017-09-22T10:33:50.559Z,51.38
2017-09-22T10:34:50.577Z,51.86
2017-09-22T10:35:50.599Z,51.96
2017-09-22T10:36:50.620Z,51.96
2017-09-22T10:37:50.645Z,51.09
2017-09-22T10:38:50.677Z,51.48
2017-09-22T10:39:50.684Z,51.19
2017-09-22T10:40:50.709Z,50.99
2017-09-22T10:41:50.736Z,51.38
2017-09-22T10:42:50.432Z,50.81
2017-09-22T10:43:50.772Z,51.12
2017-09-22T10:44:50.472Z,51.12
2017-09-22T10:45:50.501Z,50.93
2017-09-22T10:46:50.516Z,51.02
2017-09-22T10:47:50.538Z,50.54
2017-09-22T10:48:50.882Z,50.54
2017-09-22T10:49:50.902Z,50.93
2017-09-22T10:50:50.924Z,50.76
2017-09-22T10:51:50.625Z,51.05
2017-09-22T10:52:50.970Z,50.47
2017-09-22T10:53:50.993Z,50.09
2017-09-22T10:54:50.692Z,49.99
2017-09-22T10:55:50.715Z,49.99
2017-09-22T10:56:50.736Z,49.51
2017-09-22T10:57:51.077Z,49.99
2017-09-22T10:58:51.328Z,49.7
2017-09-22T10:59:50.803Z,49.63
2017-09-22T11:00:51.147Z,49.63
2017-09-22T11:01:50.845Z,49.63
2017-09-22T11:02:50.872Z,49.53
2017-09-22T11:03:51.224Z,49.53
2017-09-22T11:04:51.238Z,49.24
2017-09-22T11:05:50.937Z,48.86
2017-09-22T11:06:51.285Z,48.95
2017-09-22T11:07:51.300Z,49.53
2017-09-22T11:08:51.007Z,48.86
2017-09-22T11:09:51.369Z,48.86
2017-09-22T11:10:51.054Z,48.57
2017-09-22T11:11:51.391Z,48.59
2017-09-22T11:12:51.091Z,48.59
2017-09-22T11:13:51.467Z,48.59
2017-09-22T11:14:51.460Z,48.4
2017-09-22T11:15:51.481Z,48.01
2017-09-22T11:16:51.501Z,48.59
2017-09-22T11:17:51.524Z,48.21
2017-09-22T11:18:51.227Z,48.3
2017-09-22T11:19:51.251Z,48.3
2017-09-22T11:20:51.595Z,48.3
2017-09-22T11:21:51.304Z,48.13
2017-09-22T11:22:51.764Z,47.94
2017-09-22T11:23:51.662Z,47.27
2017-09-22T11:24:51.806Z,47.94
2017-09-22T11:25:51.706Z,47.65
2017-09-22T11:26:51.407Z,47.55
2017-09-22T11:27:51.760Z,47.17
2017-09-22T11:28:51.795Z,47.27
2017-09-22T11:29:51.478Z,47.27
2017-09-22T11:30:51.940Z,46.88
2017-09-22T11:31:51.845Z,47.17
2017-09-22T11:32:51.548Z,47.07
2017-09-22T11:33:51.566Z,46.97
2017-09-22T11:34:51.590Z,47.27
2017-09-22T11:35:51.934Z,46.88
2017-09-22T11:36:51.960Z,47
2017-09-22T11:37:52.022Z,47.38
2017-09-22T11:38:52.219Z,47
2017-09-22T11:39:52.027Z,46.71
2017-09-22T11:40:51.729Z,46.51
2017-09-22T11:41:52.074Z,46.23
2017-09-22T11:42:52.219Z,46.23
2017-09-22T11:43:52.117Z,46.42
2017-09-22T11:44:52.141Z,46.42
2017-09-22T11:45:52.164Z,46.13
2017-09-22T11:46:52.329Z,46.03
2017-09-22T11:47:51.888Z,46.13
2017-09-22T11:48:52.232Z,46.23
2017-09-22T11:49:51.948Z,46.33
2017-09-22T11:50:52.469Z,46.13
2017-09-22T11:51:52.472Z,46.03
2017-09-22T11:52:52.414Z,45.84
2017-09-22T11:53:52.351Z,45.76
2017-09-22T11:54:52.051Z,45.67
2017-09-22T11:55:52.073Z,45.48
2017-09-22T11:56:52.419Z,45.57
2017-09-22T11:57:52.450Z,45.18
2017-09-22T11:58:52.476Z,45.38
2017-09-22T11:59:52.493Z,45.48
2017-09-22T12:00:52.514Z,45.48
2017-09-22T12:01:52.223Z,45.28
2017-09-22T12:02:52.239Z,45.09
2017-09-22T12:03:52.581Z,44.9
2017-09-22T12:04:52.612Z,44.7
2017-09-22T12:05:52.631Z,44.53
2017-09-22T12:06:52.656Z,44.42
2017-09-22T12:07:52.679Z,44.34
2017-09-22T12:08:52.380Z,44.24
2017-09-22T12:09:52.732Z,44.34
2017-09-22T12:10:52.749Z,44.34
2017-09-22T12:11:52.771Z,44.24
2017-09-22T12:12:52.796Z,44.24
2017-09-22T12:13:52.496Z,44.34
2017-09-22T12:14:52.855Z,44.24
2017-09-22T12:15:52.544Z,43.85
2017-09-22T12:16:52.569Z,43.95
2017-09-22T12:17:52.595Z,44.34
2017-09-22T12:18:52.617Z,43.76
2017-09-22T12:19:52.962Z,44.05
2017-09-22T12:20:52.986Z,43.85
2017-09-22T12:21:52.688Z,44.15
2017-09-22T12:22:52.711Z,44.17
2017-09-22T12:23:53.063Z,44.07
2017-09-22T12:24:52.762Z,43.98
2017-09-22T12:25:52.785Z,44.07
2017-09-22T12:26:52.807Z,43.68
2017-09-22T12:27:52.833Z,43.68
2017-09-22T12:28:53.177Z,43.68
2017-09-22T12:29:53.198Z,43.68
2017-09-22T12:30:53.226Z,43.4
2017-09-22T12:31:52.929Z,43.88
2017-09-22T12:32:53.283Z,43.4
2017-09-22T12:33:52.973Z,43.68
2017-09-22T12:34:52.998Z,43.59
2017-09-22T12:35:53.022Z,43.3
2017-09-22T12:36:53.371Z,43.49
2017-09-22T12:37:53.421Z,43.4
2017-09-22T12:38:53.417Z,43.59
2017-09-22T12:39:53.441Z,43.49
2017-09-22T12:40:53.462Z,43.68
2017-09-22T12:41:53.172Z,43.59
2017-09-22T12:42:53.209Z,43.59
2017-09-22T12:43:53.217Z,43.49
2017-09-22T12:44:53.566Z,43.2
2017-09-22T12:45:53.585Z,42.91
2017-09-22T12:46:53.289Z,42.82
2017-09-22T12:47:53.650Z,42.91
2017-09-22T12:48:53.337Z,43.03
2017-09-22T12:49:53.686Z,42.43
2017-09-22T12:50:53.718Z,42.52
2017-09-22T12:51:53.412Z,43.32
2017-09-22T12:52:53.758Z,42.93
2017-09-22T12:53:53.805Z,42.83
2017-09-22T12:54:53.808Z,42.62
2017-09-22T12:55:53.838Z,42.72